Time;durP1;ratioP1;P1;durP2;ratioP2;P2;SDS_P1;SDS_P2;PMS_P1;PMS_P2;Temp;Humidity;BMP_temperature;BMP_pressure;BME280_temperature;BME280_humidity;BME280_pressure;Samples;Min_cycle;Max_cycle;Signal;HPM_P1;HPM_P2
2022/08/06 00:01:23;;;;;;;1.73;1.20;;;;;;;15.88;68.49;101543.44;7399050;19;20018;-72
2022/08/06 00:03:51;;;;;;;3.45;1.08;;;;;;;15.86;68.50;101547.06;7396686;19;20011;-71
2022/08/06 00:06:20;;;;;;;4.78;1.27;;;;;;;15.84;68.52;101541.81;7398128;19;20373;-71
2022/08/06 00:08:48;;;;;;;0.95;0.85;;;;;;;15.84;68.78;101538.31;7398934;19;20505;-71
2022/08/06 00:11:17;;;;;;;2.13;1.40;;;;;;;15.84;69.12;101543.63;7396454;19;20078;-71
2022/08/06 00:13:48;;;;;;;6.03;1.58;;;;;;;15.82;68.72;101562.16;7399063;19;20023;-71
2022/08/06 00:16:16;;;;;;;2.50;1.25;;;;;;;15.74;67.87;101541.19;7398703;19;20041;-70
2022/08/06 00:18:45;;;;;;;4.07;1.30;;;;;;;15.70;68.38;101544.00;7396161;19;20508;-71
2022/08/06 00:21:13;;;;;;;1.60;1.05;;;;;;;15.64;68.46;101556.50;7396502;19;20011;-71
2022/08/06 00:23:42;;;;;;;1.65;1.20;;;;;;;15.60;68.11;101556.63;7396193;19;20423;-70
2022/08/06 00:26:10;;;;;;;3.28;1.73;;;;;;;15.57;67.61;101559.34;7398068;19;20035;-70
2022/08/06 00:28:39;;;;;;;1.77;1.05;;;;;;;15.54;67.65;101548.88;7398392;19;20022;-71
2022/08/06 00:31:10;;;;;;;1.70;0.93;;;;;;;15.52;67.28;101548.06;7398549;19;20022;-71
2022/08/06 00:33:39;;;;;;;1.73;0.90;;;;;;;15.50;67.42;101558.69;7398825;19;20376;-70
2022/08/06 00:36:08;;;;;;;1.25;0.90;;;;;;;15.48;67.02;101571.94;7397526;19;20018;-71
2022/08/06 00:38:36;;;;;;;2.33;1.08;;;;;;;15.47;67.55;101570.22;7396087;19;20027;-70
2022/08/06 00:41:06;;;;;;;1.33;1.08;;;;;;;15.45;67.39;101572.03;7396102;19;20030;-71
2022/08/06 00:43:35;;;;;;;2.25;0.88;;;;;;;15.42;66.67;101565.97;7395534;19;20082;-71
2022/08/06 00:48:59;;;;;;;1.50;0.65;;;;;;;15.28;64.30;101572.53;7373089;19;20399;-70
2022/08/06 00:51:28;;;;;;;0.93;0.57;;;;;;;15.20;64.54;101581.56;7396391;19;20018;-70
2022/08/06 00:53:57;;;;;;;2.10;0.80;;;;;;;15.15;65.69;101587.88;7395869;19;20014;-70
2022/08/06 00:56:25;;;;;;;2.88;0.80;;;;;;;15.12;65.78;101584.44;7397811;19;20077;-71
2022/08/06 00:58:54;;;;;;;1.30;0.57;;;;;;;15.11;65.73;101577.41;7395637;19;20023;-68
2022/08/06 01:01:22;;;;;;;2.70;0.70;;;;;;;15.08;65.68;101573.06;7395488;19;20492;-68
2022/08/06 01:03:53;;;;;;;2.08;0.70;;;;;;;15.02;64.23;101572.38;7395606;19;20022;-68
2022/08/06 01:06:22;;;;;;;6.28;0.60;;;;;;;14.99;65.00;101581.25;7397405;19;20019;-68
2022/08/06 01:08:51;;;;;;;2.30;0.60;;;;;;;14.92;64.86;101588.47;7395349;19;20023;-68
2022/08/06 01:11:20;;;;;;;1.38;0.50;;;;;;;14.88;64.89;101583.31;7397150;19;20018;-68
2022/08/06 01:13:48;;;;;;;1.77;0.60;;;;;;;14.79;64.62;101582.63;7395640;19;20014;-68
2022/08/06 01:16:25;;;;;;;4.30;0.90;;;;;;;14.75;64.78;101577.50;7396955;19;20014;-68
2022/08/06 01:19:02;;;;;;;2.47;0.52;;;;;;;14.72;64.76;101585.50;7394727;19;20014;-68
2022/08/06 01:21:50;;;;;;;0.30;0.30;;;;;;;14.71;65.05;101594.31;7397190;19;20018;-69
2022/08/06 01:24:43;;;;;;;3.25;0.73;;;;;;;14.70;65.16;101590.81;7394702;19;20018;-68
2022/08/06 01:27:36;;;;;;;0.98;0.68;;;;;;;14.69;64.64;101590.84;7393362;19;20087;-68
2022/08/06 01:30:08;;;;;;;3.25;0.63;;;;;;;14.64;64.95;101602.38;7396553;19;20374;-68
2022/08/06 01:32:42;;;;;;;1.30;0.52;;;;;;;14.61;65.42;101596.31;7396111;19;20023;-68
2022/08/06 01:35:16;;;;;;;1.20;0.50;;;;;;;14.59;65.37;101591.03;7396345;19;20387;-68
2022/08/06 01:37:48;;;;;;;;;;;;;;;14.56;65.11;101598.16;7395870;19;20414;-68
2022/08/06 01:40:22;;;;;;;1.00;0.47;;;;;;;14.52;65.71;101601.78;7394776;19;19926;-68
2022/08/06 01:42:56;;;;;;;1.65;0.60;;;;;;;14.49;65.55;101602.75;7396527;19;20018;-69
2022/08/06 01:45:28;;;;;;;1.67;0.60;;;;;;;14.44;65.36;101605.47;7396486;19;20014;-69
2022/08/06 01:48:03;;;;;;;2.03;0.60;;;;;;;14.42;65.62;101616.97;7394670;19;20035;-69
2022/08/06 01:50:37;;;;;;;1.92;0.80;;;;;;;14.38;65.35;101610.94;7394770;19;20043;-68
2022/08/06 01:53:09;;;;;;;0.95;0.57;;;;;;;14.34;65.78;101606.63;7396196;19;20043;-68
2022/08/06 01:55:44;;;;;;;1.83;0.52;;;;;;;14.29;65.95;101604.09;7393807;19;20497;-68
2022/08/06 01:58:18;;;;;;;0.63;0.50;;;;;;;14.30;66.08;101607.59;7393582;19;20026;-71
2022/08/06 02:00:51;;;;;;;1.05;0.63;;;;;;;14.29;66.14;101608.50;7393756;19;20489;-68
2022/08/06 02:03:25;;;;;;;1.95;0.70;;;;;;;14.25;66.40;101612.97;7395980;19;20026;-69
2022/08/06 02:05:56;;;;;;;2.03;0.60;;;;;;;14.24;66.36;101620.94;7395472;19;20035;-69
2022/08/06 02:08:27;;;;;;;1.90;0.50;;;;;;;14.23;66.61;101627.09;7394241;19;20025;-68
2022/08/06 02:10:58;;;;;;;2.33;0.60;;;;;;;14.18;66.66;101628.09;7395918;19;20031;-69
2022/08/06 02:13:33;;;;;;;1.52;0.55;;;;;;;14.15;66.69;101625.53;7393882;19;20035;-68
2022/08/06 02:16:03;;;;;;;1.38;0.52;;;;;;;14.11;66.82;101626.47;7393365;19;20019;-69
2022/08/06 02:18:36;;;;;;;2.30;0.77;;;;;;;14.09;66.73;101632.69;7393573;19;20023;-69
2022/08/06 02:21:08;;;;;;;2.17;0.70;;;;;;;14.05;66.84;101634.53;7393483;19;20018;-68
2022/08/06 02:23:39;;;;;;;1.67;0.60;;;;;;;13.98;67.31;101635.59;7395153;19;20421;-68
2022/08/06 02:26:09;;;;;;;2.30;1.13;;;;;;;13.96;67.35;101637.38;7395414;19;20022;-68
2022/08/06 02:28:45;;;;;;;4.68;1.08;;;;;;;13.94;67.51;101644.44;7392461;19;20019;-70
2022/08/06 02:31:14;;;;;;;1.13;0.57;;;;;;;13.91;67.59;101645.38;7395060;19;20027;-67
2022/08/06 02:33:42;;;;;;;2.13;0.55;;;;;;;13.90;67.73;101648.06;7394195;19;20027;-69
2022/08/06 02:36:18;;;;;;;2.55;0.50;;;;;;;13.90;67.87;101645.41;7394471;19;20011;-68
2022/08/06 02:38:52;;;;;;;1.60;0.80;;;;;;;13.88;67.91;101652.53;7392629;19;20244;-69
2022/08/06 02:41:26;;;;;;;0.95;0.65;;;;;;;13.84;67.93;101657.00;7394271;19;20483;-69
2022/08/06 02:43:59;;;;;;;;;;;;;;;13.82;68.23;101659.63;7396854;19;20383;-69
2022/08/06 02:46:31;;;;;;;1.40;0.63;;;;;;;13.79;68.23;101667.63;7394213;19;19919;-68
2022/08/06 02:49:04;;;;;;;1.35;0.70;;;;;;;13.77;68.27;101663.28;7392230;19;20022;-69
2022/08/06 02:51:39;;;;;;;1.23;0.67;;;;;;;13.74;68.38;101664.22;7392660;19;20060;-69
2022/08/06 02:54:12;;;;;;;1.75;0.63;;;;;;;13.72;68.57;101673.91;7394583;19;20014;-69
2022/08/06 02:56:47;;;;;;;1.55;0.63;;;;;;;13.70;68.69;101670.47;7394483;19;20015;-68
2022/08/06 02:59:29;;;;;;;1.95;0.50;;;;;;;13.70;68.65;101683.63;7393827;19;20023;-69
2022/08/06 03:02:03;;;;;;;2.45;0.70;;;;;;;13.66;68.97;101680.19;7393781;19;20114;-69
2022/08/06 03:04:34;;;;;;;0.93;0.60;;;;;;;13.73;68.91;101690.63;7394102;19;20018;-69
2022/08/06 03:07:11;;;;;;;1.08;0.63;;;;;;;13.71;68.84;101688.03;7397841;19;20023;-69
2022/08/06 03:09:42;;;;;;;0.88;0.50;;;;;;;13.70;69.05;101694.19;7402069;19;20074;-69
2022/08/06 03:12:13;;;;;;;1.15;0.77;;;;;;;13.66;69.01;101693.38;7400958;19;20018;-69
2022/08/06 03:15:04;;;;;;;1.23;0.50;;;;;;;13.64;69.14;101702.22;7400736;19;20507;-69
2022/08/06 03:17:35;;;;;;;0.93;0.75;;;;;;;13.60;69.25;101698.75;7399512;19;20495;-69
2022/08/06 03:20:05;;;;;;;1.75;0.63;;;;;;;13.57;69.33;101703.22;7399717;19;20029;-69
2022/08/06 03:22:35;;;;;;;1.67;0.73;;;;;;;13.52;69.58;101704.19;7398529;19;20074;-69
2022/08/06 03:25:04;;;;;;;2.03;0.75;;;;;;;13.47;69.66;101707.78;7400329;19;20014;-69
2022/08/06 03:27:33;;;;;;;1.75;0.95;;;;;;;13.42;69.76;101705.25;7399054;19;20480;-69
2022/08/06 03:30:05;;;;;;;2.40;0.73;;;;;;;13.40;69.99;101716.72;7400185;19;20476;-69
2022/08/06 03:32:34;;;;;;;5.10;0.93;;;;;;;13.37;70.15;101725.56;7398232;19;20078;-70
2022/08/06 03:35:05;;;;;;;2.75;0.90;;;;;;;13.35;70.03;101724.69;7397615;19;20453;-69
2022/08/06 03:37:35;;;;;;;3.15;0.95;;;;;;;13.32;70.39;101735.25;7398963;19;20029;-69
2022/08/06 03:40:05;;;;;;;1.67;1.05;;;;;;;13.28;70.40;101730.94;7398921;19;20078;-69
2022/08/06 03:42:34;;;;;;;1.42;0.70;;;;;;;13.21;70.72;101735.47;7399824;19;20383;-69
2022/08/06 03:45:06;;;;;;;2.25;0.75;;;;;;;13.16;70.95;101739.94;7400083;19;20031;-69
2022/08/06 03:47:42;;;;;;;2.05;0.73;;;;;;;13.14;70.95;101731.19;7397066;19;20484;-69
2022/08/06 03:50:15;;;;;;;1.67;0.98;;;;;;;13.10;70.87;101734.75;7397875;19;20006;-69
2022/08/06 03:52:48;;;;;;;1.55;0.73;;;;;;;13.07;71.15;101740.06;7400127;19;20036;-69
2022/08/06 03:55:19;;;;;;;1.73;0.80;;;;;;;13.02;71.25;101742.78;7397629;19;20014;-69
2022/08/06 03:57:50;;;;;;;1.85;1.00;;;;;;;12.99;71.32;101743.72;7398354;19;20022;-69
2022/08/06 04:00:25;;;;;;;2.53;1.00;;;;;;;12.96;71.43;101750.78;7397355;19;20111;-69
2022/08/06 04:02:56;;;;;;;1.23;0.95;;;;;;;12.92;71.57;101751.75;7399881;19;20023;-69
2022/08/06 04:05:28;;;;;;;3.72;1.10;;;;;;;12.88;71.60;101762.31;7398978;19;20074;-69
2022/08/06 04:07:58;;;;;;;2.90;1.05;;;;;;;12.85;71.84;101762.38;7397060;19;20035;-69
2022/08/06 04:10:30;;;;;;;2.83;1.23;;;;;;;12.80;71.89;101763.31;7399564;19;20018;-69
2022/08/06 04:12:59;;;;;;;4.38;1.33;;;;;;;12.78;72.08;101767.75;7399492;19;20085;-69
2022/08/06 04:15:30;;;;;;;1.92;0.85;;;;;;;12.75;72.26;101780.94;7396669;19;20018;-69
2022/08/06 04:18:00;;;;;;;2.85;1.05;;;;;;;12.72;72.28;101781.84;7396217;19;20014;-69
2022/08/06 04:20:31;;;;;;;2.30;0.80;;;;;;;12.71;72.34;101777.47;7396486;19;20022;-69
2022/08/06 04:22:59;;;;;;;4.97;0.90;;;;;;;12.69;72.33;101777.50;7399202;19;20019;-69
2022/08/06 04:25:31;;;;;;;1.38;0.70;;;;;;;12.69;72.50;101780.13;7398288;19;20115;-69
2022/08/06 04:28:01;;;;;;;1.33;0.75;;;;;;;12.68;72.59;101785.44;7396657;19;20041;-69
2022/08/06 04:30:35;;;;;;;1.20;0.95;;;;;;;12.68;72.77;101788.06;7398968;19;20414;-69
2022/08/06 04:33:04;;;;;;;1.48;0.73;;;;;;;12.68;72.72;101796.81;7398434;19;20018;-69
2022/08/06 04:35:33;;;;;;;5.07;1.70;;;;;;;12.67;72.66;101794.22;7397925;19;20019;-69
2022/08/06 04:38:03;;;;;;;3.95;2.10;;;;;;;12.68;72.83;101803.88;7395339;19;20019;-69
2022/08/06 04:40:33;;;;;;;1.48;1.30;;;;;;;12.69;72.75;101810.88;7396151;19;20484;-69
2022/08/06 04:43:01;;;;;;;6.95;4.45;;;;;;;12.70;72.69;101813.47;7398426;19;20078;-69
2022/08/06 04:45:34;;;;;;;2.72;1.25;;;;;;;12.71;72.90;101802.06;7396224;19;20022;-69
2022/08/06 04:48:03;;;;;;;2.22;1.10;;;;;;;12.71;72.86;101807.34;7396559;19;20395;-69
2022/08/06 04:50:32;;;;;;;2.70;1.15;;;;;;;12.71;72.94;101817.88;7396242;19;20027;-70
2022/08/06 04:53:08;;;;;;;2.10;1.10;;;;;;;12.71;73.06;101832.78;7397919;19;20011;-69
2022/08/06 04:55:38;;;;;;;3.17;1.00;;;;;;;12.71;72.89;101827.50;7397945;19;20011;-69
2022/08/06 04:58:08;;;;;;;2.85;1.27;;;;;;;12.70;73.29;101841.56;7396484;19;20039;-69
2022/08/06 05:00:42;;;;;;;1.35;1.20;;;;;;;12.70;73.30;101834.53;7396695;19;20039;-70
2022/08/06 05:03:17;;;;;;;2.65;0.90;;;;;;;12.70;73.56;101838.91;7395900;19;20018;-69
2022/08/06 05:05:56;;;;;;;3.78;0.90;;;;;;;12.69;73.49;101845.97;7397320;19;20087;-69
2022/08/06 05:08:27;;;;;;;1.90;1.10;;;;;;;12.67;73.62;101841.63;7395342;19;20018;-69
2022/08/06 05:10:59;;;;;;;0.98;0.85;;;;;;;12.65;73.57;101852.16;7397462;19;20039;-69
2022/08/06 05:13:32;;;;;;;1.95;1.13;;;;;;;12.63;73.94;101846.03;7397502;19;20022;-69
2022/08/06 05:16:07;;;;;;;3.00;1.07;;;;;;;12.61;74.01;101853.09;7397876;19;20375;-69
2022/08/06 05:18:39;;;;;;;1.23;0.93;;;;;;;12.60;74.05;101853.09;7395218;19;20014;-69
2022/08/06 05:21:09;;;;;;;0.98;0.85;;;;;;;12.59;74.21;101861.91;7395851;19;20010;-69
2022/08/06 05:23:43;;;;;;;2.58;1.10;;;;;;;12.54;74.47;101867.22;7396136;19;20484;-69
2022/08/06 05:26:12;;;;;;;1.83;0.82;;;;;;;12.51;74.42;101861.97;7396207;19;20037;-69
2022/08/06 05:28:41;;;;;;;3.33;1.70;;;;;;;12.49;74.40;101867.28;7394545;19;20031;-69
2022/08/06 05:31:12;;;;;;;2.45;0.95;;;;;;;12.48;74.76;101870.78;7393740;19;20035;-69
2022/08/06 05:33:41;;;;;;;4.10;1.20;;;;;;;12.47;74.87;101873.44;7394703;19;20039;-69
2022/08/06 05:36:13;;;;;;;3.28;1.13;;;;;;;12.45;75.23;101881.38;7395460;19;20023;-69
2022/08/06 05:38:43;;;;;;;2.28;1.00;;;;;;;12.45;75.12;101881.38;7394592;19;20037;-69
2022/08/06 05:41:13;;;;;;;2.65;1.02;;;;;;;12.46;75.30;101891.00;7394787;19;20046;-68
2022/08/06 05:43:43;;;;;;;4.18;1.27;;;;;;;12.49;75.36;101883.06;7394392;19;20039;-69
2022/08/06 05:46:17;;;;;;;1.67;0.88;;;;;;;12.50;75.41;101886.59;7395492;19;20041;-68
2022/08/06 05:48:51;;;;;;;2.17;1.10;;;;;;;12.52;75.37;101895.31;7393554;19;20019;-69
2022/08/06 05:51:26;;;;;;;2.25;1.10;;;;;;;12.54;75.28;101894.41;7393573;19;20010;-69
2022/08/06 05:54:12;;;;;;;1.75;1.02;;;;;;;12.55;75.50;101909.31;7394394;19;20026;-69
2022/08/06 05:56:45;;;;;;;2.38;1.20;;;;;;;12.58;75.37;101897.03;7395542;19;20018;-70
2022/08/06 05:59:21;;;;;;;2.53;1.10;;;;;;;12.60;75.79;101897.84;7396036;19;20078;-69
2022/08/06 06:01:53;;;;;;;4.95;1.63;;;;;;;12.63;75.37;101895.22;7394210;19;20031;-69
2022/08/06 06:04:23;;;;;;;2.42;0.98;;;;;;;12.67;75.11;101896.91;7393417;19;20375;-69
2022/08/06 06:06:52;;;;;;;1.67;0.82;;;;;;;12.72;75.25;101897.72;7394753;19;20018;-69
2022/08/06 06:09:21;;;;;;;5.10;0.90;;;;;;;12.81;75.29;101913.38;7393545;19;20022;-69
2022/08/06 06:11:51;;;;;;;3.10;1.10;;;;;;;12.88;75.01;101912.44;7394878;19;20431;-69
2022/08/06 06:14:38;;;;;;;2.65;1.10;;;;;;;12.95;75.03;101910.59;7395261;19;20022;-69
2022/08/06 06:17:33;;;;;;;2.42;1.25;;;;;;;13.00;75.00;101913.16;7394890;19;20017;-69
2022/08/06 06:20:14;;;;;;;5.35;1.40;;;;;;;13.10;74.58;101913.91;7394925;19;20026;-69
2022/08/06 06:22:52;;;;;;;1.98;0.88;;;;;;;13.17;74.47;101916.44;7394856;19;20014;-69
2022/08/06 06:25:26;;;;;;;3.78;0.98;;;;;;;13.24;74.50;101913.72;7395587;19;20014;-69
2022/08/06 06:28:02;;;;;;;3.00;1.20;;;;;;;13.30;74.14;101919.78;7392858;19;20022;-69
2022/08/06 06:30:51;;;;;;;3.22;1.10;;;;;;;13.38;73.74;101924.97;7394108;19;20496;-69
2022/08/06 06:33:26;;;;;;;2.00;1.25;;;;;;;13.41;73.42;101922.31;7394613;19;20091;-69
2022/08/06 06:35:58;;;;;;;4.25;2.20;;;;;;;13.47;73.31;101914.31;7392734;19;20018;-70
2022/08/06 06:38:39;;;;;;;4.10;1.40;;;;;;;13.52;73.30;101919.47;7392619;19;20021;-69
2022/08/06 06:41:13;;;;;;;3.58;0.90;;;;;;;13.58;72.76;101921.16;7394120;19;20007;-69
2022/08/06 06:43:48;;;;;;;2.30;1.02;;;;;;;13.63;72.73;101921.97;7402387;19;20365;-69
2022/08/06 06:46:25;;;;;;;1.63;1.08;;;;;;;13.72;72.50;101928.88;7399728;19;20044;-69
2022/08/06 06:49:01;;;;;;;1.95;0.80;;;;;;;13.79;72.66;101927.88;7398680;19;20019;-69
2022/08/06 06:51:34;;;;;;;5.18;1.13;;;;;;;13.89;72.17;101936.50;7398873;19;20428;-69
2022/08/06 06:54:03;;;;;;;2.67;1.23;;;;;;;13.95;71.95;101934.66;7402083;19;20082;-69
2022/08/06 06:56:36;;;;;;;3.10;1.33;;;;;;;14.02;71.43;101936.25;7401430;19;20014;-69
2022/08/06 06:59:12;;;;;;;1.38;0.82;;;;;;;14.09;71.15;101934.41;7399143;19;20086;-69
2022/08/06 07:01:49;;;;;;;2.45;0.88;;;;;;;14.16;70.20;101941.28;7398581;19;20032;-69
2022/08/06 07:04:21;;;;;;;3.70;0.80;;;;;;;14.23;70.06;101944.72;7398889;19;20023;-69
2022/08/06 07:06:53;;;;;;;2.83;0.75;;;;;;;14.30;70.21;101943.69;7397876;19;20014;-69
2022/08/06 07:09:30;;;;;;;2.33;0.80;;;;;;;14.39;69.89;101939.16;7401408;19;20019;-69
2022/08/06 07:12:00;;;;;;;2.75;0.60;;;;;;;14.45;69.52;101942.53;7401237;19;20090;-69
2022/08/06 07:14:30;;;;;;;1.33;0.70;;;;;;;14.53;69.09;101944.16;7400047;19;20019;-69
2022/08/06 07:17:01;;;;;;;1.38;0.50;;;;;;;14.59;67.64;101951.97;7400153;19;20111;-69
2022/08/06 07:19:34;;;;;;;4.13;1.00;;;;;;;14.66;67.55;101948.38;7400385;19;20494;-69
2022/08/06 07:22:04;;;;;;;2.58;0.70;;;;;;;14.74;67.58;101946.41;7398393;19;20090;-69
2022/08/06 07:24:37;;;;;;;3.17;1.00;;;;;;;14.82;67.35;101944.50;7397371;19;20011;-69
2022/08/06 07:27:06;;;;;;;1.77;0.60;;;;;;;14.89;65.92;101947.88;7397298;19;20478;-69
2022/08/06 07:29:36;;;;;;;1.50;0.60;;;;;;;14.97;65.58;101950.38;7399041;19;20548;-70
2022/08/06 07:32:06;;;;;;;2.42;0.80;;;;;;;15.03;65.70;101955.53;7399203;19;20497;-70
2022/08/06 07:34:38;;;;;;;1.25;0.70;;;;;;;15.10;65.16;101956.25;7399531;19;20014;-70
2022/08/06 07:37:09;;;;;;;2.20;0.50;;;;;;;15.16;65.28;101958.78;7399064;19;20015;-70
2022/08/06 07:39:41;;;;;;;3.33;0.75;;;;;;;15.24;64.84;101959.50;7396834;19;20130;-69
2022/08/06 07:42:11;;;;;;;2.58;0.60;;;;;;;15.32;64.73;101961.97;7397031;19;20031;-70
2022/08/06 07:44:43;;;;;;;2.53;1.00;;;;;;;15.39;63.99;101963.56;7399556;19;20015;-70
2022/08/06 07:47:15;;;;;;;2.65;1.23;;;;;;;15.43;63.67;101959.94;7397838;19;20074;-70
2022/08/06 07:49:48;;;;;;;3.33;0.70;;;;;;;15.50;62.80;101957.16;7399256;19;20022;-69
2022/08/06 07:52:18;;;;;;;2.30;1.00;;;;;;;15.57;61.69;101961.38;7398225;19;20019;-69
2022/08/06 07:54:48;;;;;;;1.85;0.93;;;;;;;15.65;61.21;101964.72;7395705;19;20388;-70
2022/08/06 07:57:17;;;;;;;0.85;0.40;;;;;;;15.72;60.27;101961.03;7398316;19;20035;-71
2022/08/06 07:59:47;;;;;;;3.40;0.70;;;;;;;15.82;60.12;101960.84;7398682;19;20068;-69
2022/08/06 08:02:16;;;;;;;1.13;0.50;;;;;;;15.91;57.15;101960.59;7396476;19;20074;-70
2022/08/06 08:07:31;;;;;;;0.95;0.57;;;;;;;16.12;57.05;101981.28;7397820;19;20015;-71
2022/08/06 08:10:02;;;;;;;1.25;0.50;;;;;;;16.19;56.42;101975.78;7399220;19;20401;-70
2022/08/06 08:12:31;;;;;;;1.63;0.93;;;;;;;16.24;56.59;101968.63;7396513;19;20078;-70
2022/08/06 08:15:00;;;;;;;0.95;0.30;;;;;;;16.32;56.18;101968.44;7398800;19;20216;-70
2022/08/06 08:17:29;;;;;;;1.85;0.30;;;;;;;16.38;53.93;101977.06;7397453;19;20031;-70
2022/08/06 08:20:05;;;;;;;0.70;0.20;;;;;;;16.45;52.84;101962.75;7398978;19;20086;-70
2022/08/06 08:22:33;;;;;;;1.65;0.30;;;;;;;16.51;52.03;101992.66;7395647;19;20018;-70
2022/08/06 08:25:02;;;;;;;1.63;0.40;;;;;;;16.56;53.74;101969.53;7398171;19;20022;-70
2022/08/06 08:27:30;;;;;;;1.15;0.40;;;;;;;16.65;53.56;101973.72;7395863;19;20018;-70
2022/08/06 08:29:59;;;;;;;0.30;0.30;;;;;;;16.73;52.60;101966.41;7398715;19;20031;-70
2022/08/06 08:32:27;;;;;;;0.90;0.38;;;;;;;16.82;53.07;101973.22;7395431;19;20438;-70
2022/08/06 08:34:56;;;;;;;1.08;0.47;;;;;;;16.85;53.01;101974.03;7395707;19;20035;-70
2022/08/06 08:37:28;;;;;;;2.03;0.30;;;;;;;16.90;50.65;101972.09;7396943;19;20086;-70
2022/08/06 08:39:56;;;;;;;2.45;0.65;;;;;;;16.94;51.96;101960.53;7396836;19;20011;-69
2022/08/06 08:42:33;;;;;;;1.73;0.45;;;;;;;17.00;50.21;101963.94;7396148;19;20481;-69
2022/08/06 08:45:02;;;;;;;0.60;0.43;;;;;;;17.05;51.24;101965.53;7395561;19;20011;-70
2022/08/06 08:47:32;;;;;;;0.82;0.30;;;;;;;17.12;50.50;101976.81;7396582;19;20018;-69
2022/08/06 08:50:03;;;;;;;1.30;0.28;;;;;;;17.18;49.86;101976.63;7397006;19;20035;-69
2022/08/06 08:52:36;;;;;;;1.83;0.30;;;;;;;17.23;47.67;101976.50;7398157;19;20043;-69
2022/08/06 08:55:07;;;;;;;0.80;0.30;;;;;;;17.27;47.91;101978.13;7398054;19;20015;-69
2022/08/06 08:57:36;;;;;;;0.50;0.30;;;;;;;17.32;47.86;101986.81;7396148;19;20027;-69
2022/08/06 09:00:07;;;;;;;0.73;0.20;;;;;;;17.37;46.64;101982.25;7397840;19;20021;-69
2022/08/06 09:02:36;;;;;;;0.98;0.10;;;;;;;17.43;46.92;101984.72;7395777;19;20384;-69
2022/08/06 09:05:05;;;;;;;0.60;0.20;;;;;;;17.52;46.70;101977.41;7396053;19;20375;-69
2022/08/06 09:07:36;;;;;;;0.60;0.13;;;;;;;17.58;45.31;101986.03;7394975;19;20026;-69
2022/08/06 09:10:06;;;;;;;2.75;0.30;;;;;;;17.63;46.32;101983.25;7397016;19;20018;-69
2022/08/06 09:12:35;;;;;;;1.20;0.32;;;;;;;17.66;46.68;101974.31;7396670;19;20022;-70
2022/08/06 09:15:04;;;;;;;0.85;0.20;;;;;;;17.71;46.65;101978.53;7397557;19;20078;-70
2022/08/06 09:17:32;;;;;;;1.10;0.50;;;;;;;17.79;46.58;101982.75;7395369;19;20520;-70
2022/08/06 09:20:01;;;;;;;0.35;0.20;;;;;;;17.85;45.94;101970.13;7395631;19;20540;-69
2022/08/06 09:22:29;;;;;;;2.72;0.40;;;;;;;17.88;45.05;101980.66;7394909;19;20375;-69
2022/08/06 09:25:01;;;;;;;2.00;0.38;;;;;;;17.87;43.86;101988.69;7394249;19;20018;-70
2022/08/06 09:27:36;;;;;;;1.25;0.40;;;;;;;17.89;44.73;101986.81;7394879;19;20033;-70
2022/08/06 09:30:07;;;;;;;0.45;0.20;;;;;;;17.97;45.86;101984.84;7395631;19;20477;-70
2022/08/06 09:32:41;;;;;;;1.00;0.30;;;;;;;18.05;45.93;101985.44;7396336;19;20032;-70
2022/08/06 09:35:28;;;;;;;0.77;0.30;;;;;;;18.15;45.84;101985.13;7393714;19;20015;-70
2022/08/06 09:38:03;;;;;;;2.03;0.40;;;;;;;18.24;45.13;101990.13;7394689;19;20045;-69
2022/08/06 09:40:34;;;;;;;0.90;0.30;;;;;;;18.32;44.99;101993.38;7395090;19;20018;-70
2022/08/06 09:43:03;;;;;;;2.90;0.65;;;;;;;18.39;46.00;101984.28;7393797;19;20014;-69
2022/08/06 09:45:32;;;;;;;1.17;0.32;;;;;;;18.50;45.39;101986.56;7393271;19;20481;-70
2022/08/06 09:48:06;;;;;;;0.65;0.30;;;;;;;18.59;44.80;101974.75;7394512;19;20022;-70
2022/08/06 09:50:40;;;;;;;0.75;0.20;;;;;;;18.71;43.83;101989.38;7395105;19;20033;-70
2022/08/06 09:53:09;;;;;;;0.60;0.20;;;;;;;18.79;44.50;101989.09;7396140;19;20014;-70
2022/08/06 09:55:41;;;;;;;0.82;0.30;;;;;;;18.81;44.03;101988.09;7393734;19;20039;-70
2022/08/06 09:58:10;;;;;;;1.02;0.40;;;;;;;18.89;44.47;101987.81;7393482;19;20031;-70
2022/08/06 10:00:40;;;;;;;1.38;0.40;;;;;;;18.97;43.75;101996.44;7394816;19;20015;-71
2022/08/06 10:03:10;;;;;;;0.68;0.25;;;;;;;18.97;43.25;101976.94;7393770;19;20333;-70
2022/08/06 10:05:39;;;;;;;2.50;1.33;;;;;;;19.08;43.07;101993.34;7393655;19;20476;-70
2022/08/06 10:08:11;;;;;;;0.85;0.20;;;;;;;19.18;43.13;101983.22;7393770;19;20014;-70
2022/08/06 10:10:50;;;;;;;0.82;0.20;;;;;;;19.24;42.26;101993.66;7395631;19;20011;-70
2022/08/06 10:13:23;;;;;;;1.08;0.22;;;;;;;19.19;42.55;101992.94;7395185;19;20031;-70
2022/08/06 10:15:52;;;;;;;1.85;0.35;;;;;;;19.19;43.45;101998.28;7393953;19;20018;-70
2022/08/06 10:18:41;;;;;;;1.50;0.30;;;;;;;19.21;41.68;101983.13;7392514;19;20023;-70
2022/08/06 10:21:12;;;;;;;0.75;0.40;;;;;;;19.22;42.17;101982.19;7394692;19;20018;-70
2022/08/06 10:23:42;;;;;;;0.55;0.10;;;;;;;19.29;42.02;101989.00;7395215;19;20018;-70
2022/08/06 10:26:15;;;;;;;0.60;0.13;;;;;;;19.33;41.21;101987.94;7394261;19;20010;-70
2022/08/06 10:28:46;;;;;;;1.90;0.30;;;;;;;19.42;41.85;101989.38;7392628;19;20032;-70
2022/08/06 10:31:16;;;;;;;0.20;0.17;;;;;;;19.52;41.92;101992.56;7392621;19;20018;-70
2022/08/06 10:33:50;;;;;;;1.40;0.38;;;;;;;19.62;41.08;101990.41;7394594;19;20027;-69
2022/08/06 10:36:30;;;;;;;0.63;0.20;;;;;;;19.69;38.82;101991.91;7394609;19;20018;-69
2022/08/06 10:39:00;;;;;;;1.23;0.30;;;;;;;19.68;40.68;101983.03;7391933;19;20022;-69
2022/08/06 10:41:34;;;;;;;1.42;0.70;;;;;;;19.74;40.54;101986.38;7393913;19;20023;-69
2022/08/06 10:44:03;;;;;;;2.17;0.40;;;;;;;19.81;40.81;101982.53;7394833;19;20011;-70
2022/08/06 10:46:34;;;;;;;2.28;0.43;;;;;;;19.87;40.92;101985.00;7392616;19;20039;-69
2022/08/06 10:49:03;;;;;;;1.30;0.20;;;;;;;19.87;39.59;101990.31;7394215;19;20011;-70
2022/08/06 10:51:38;;;;;;;3.38;0.70;;;;;;;19.78;39.01;101990.66;7391090;19;20007;-70
2022/08/06 10:54:07;;;;;;;4.18;0.88;;;;;;;19.70;39.38;101977.63;7394648;19;20042;-70
2022/08/06 10:56:40;;;;;;;3.03;0.80;;;;;;;19.70;39.41;101972.31;7393960;19;20031;-69
2022/08/06 10:59:09;;;;;;;3.78;0.98;;;;;;;19.78;39.30;101977.34;7394375;19;20036;-70
2022/08/06 11:01:47;;;;;;;0.75;0.30;;;;;;;19.88;38.90;101976.06;7393255;19;20086;-70
2022/08/06 11:04:23;;;;;;;1.83;0.20;;;;;;;19.97;38.14;101981.00;7393466;19;20083;-70
2022/08/06 11:07:16;;;;;;;0.52;0.32;;;;;;;20.07;37.50;101977.94;7392978;19;20378;-70
2022/08/06 11:10:04;;;;;;;1.20;0.28;;;;;;;20.12;37.76;101971.50;7393372;19;20489;-70
2022/08/06 11:12:49;;;;;;;1.17;0.30;;;;;;;20.18;38.45;101967.69;7393391;19;20014;-70
2022/08/06 11:15:18;;;;;;;0.70;0.30;;;;;;;20.24;38.03;101971.91;7391809;19;20086;-70
2022/08/06 11:17:48;;;;;;;1.67;0.30;;;;;;;20.23;38.66;101965.69;7391943;19;20019;-70
2022/08/06 11:20:39;;;;;;;1.65;0.30;;;;;;;20.19;38.25;101958.78;7393139;19;20022;-69
2022/08/06 11:23:25;;;;;;;1.10;0.35;;;;;;;20.23;38.40;101964.84;7390947;19;20014;-69
2022/08/06 11:25:56;;;;;;;8.10;5.28;;;;;;;20.28;38.59;101962.84;7391110;19;20019;-69
2022/08/06 11:28:54;;;;;;;0.88;0.35;;;;;;;20.34;37.11;101958.09;7393958;19;20026;-69
2022/08/06 11:31:41;;;;;;;1.02;0.50;;;;;;;20.49;37.01;101945.91;7400600;19;20079;-70
2022/08/06 11:34:14;;;;;;;4.05;0.20;;;;;;;20.67;37.34;101944.25;7397130;19;20495;-69
2022/08/06 11:36:59;;;;;;;1.05;0.30;;;;;;;20.87;35.61;101939.81;7399912;19;20019;-70
2022/08/06 11:39:29;;;;;;;0.75;0.30;;;;;;;20.99;35.97;101957.91;7399595;19;20074;-70
2022/08/06 11:42:01;;;;;;;0.95;0.30;;;;;;;20.99;36.41;101941.03;7396495;19;20022;-70
2022/08/06 11:44:34;;;;;;;0.93;0.38;;;;;;;20.92;35.80;101956.47;7398864;19;20011;-70
2022/08/06 11:47:19;;;;;;;0.70;0.20;;;;;;;20.96;35.88;101944.69;7396203;19;20018;-70
2022/08/06 11:49:50;;;;;;;0.50;0.20;;;;;;;21.01;36.46;101935.66;7397280;19;20041;-71
2022/08/06 11:52:43;;;;;;;2.72;0.77;;;;;;;21.15;34.98;101944.75;7397016;19;20010;-70
2022/08/06 11:55:13;;;;;;;0.65;0.20;;;;;;;21.26;34.69;101946.88;7399126;19;20074;-70
2022/08/06 11:57:43;;;;;;;0.73;0.25;;;;;;;21.32;35.45;101961.75;7397583;19;20500;-70